Main page
METAR-TAF:

METAR-TAF

Airports :

Derby Field

Lovelock, Nevada, United States

latitude: 40-03-59N, longitude: 118-33-55W, elevation: 3903 ft

Current weather observation

The report was made 14 minutes ago, at 06:53 UTC
Wind 26 mph from the South/Southwest with gusts up to 37 mph
Temperature 43°F
Humidity 56%
Pressure 29.51 in. Hg
Visibility: 8 miles
Scattered clouds at a height of 1300 ft
Broken clouds at a height of 5500 ft
Broken clouds at a height of 6500 ft

METAR: KLOL 020653Z AUTO 20023G32KT 8SM SCT013 BKN055 BKN065 06/M02 A2951 RMK AO2 PK WND 21032/0605 SLP988 T00561017

Time: 23:07 (07:07 UTC)


TAF: missing

Weather observations and forecasts of more than 4000 airports (METAR and TAF reports).

The available stations are represented by yellow and red dots on the map.

Hover mouse over dot to see the name of the station.

Then click to see weather observations and forecasts.

To change the map : click on the green buttons with a black cross to zoom in, on the green button with a dash to zoom out, or on the green arrows for adjacent maps.


METAR-TAF: